sensor_id;sensor_type;location;lat;lon;timestamp;pressure;altitude;pressure_sealevel;temperature;humidity
56040;BME280;43937;41.366;2.072;2022-10-31T00:00:07;101335.44;;;19.80;100.00
56040;BME280;43937;41.366;2.072;2022-10-31T00:03:16;101326.50;;;19.72;100.00
56040;BME280;43937;41.366;2.072;2022-10-31T00:05:44;101323.31;;;19.61;100.00
56040;BME280;43937;41.366;2.072;2022-10-31T00:08:10;101277.38;;;19.27;100.00
56040;BME280;43937;41.366;2.072;2022-10-31T00:10:42;101326.03;;;19.48;100.00
56040;BME280;43937;41.366;2.072;2022-10-31T00:13:08;101324.34;;;19.47;100.00
56040;BME280;43937;41.366;2.072;2022-10-31T00:15:35;101325.84;;;19.43;100.00
56040;BME280;43937;41.366;2.072;2022-10-31T00:18:02;101329.22;;;19.38;100.00
56040;BME280;43937;41.366;2.072;2022-10-31T00:20:28;101280.56;;;19.04;100.00
56040;BME280;43937;41.366;2.072;2022-10-31T00:22:58;101328.81;;;19.41;100.00
56040;BME280;43937;41.366;2.072;2022-10-31T00:25:23;101302.03;;;19.15;100.00
56040;BME280;43937;41.366;2.072;2022-10-31T00:27:49;101328.13;;;19.19;100.00
56040;BME280;43937;41.366;2.072;2022-10-31T00:30:14;101336.00;;;19.16;100.00
56040;BME280;43937;41.366;2.072;2022-10-31T00:32:40;101337.03;;;19.15;100.00
56040;BME280;43937;41.366;2.072;2022-10-31T00:35:05;101322.13;;;18.96;100.00
56040;BME280;43937;41.366;2.072;2022-10-31T00:37:31;101342.72;;;19.00;100.00
56040;BME280;43937;41.366;2.072;2022-10-31T00:39:56;101339.34;;;18.98;100.00
56040;BME280;43937;41.366;2.072;2022-10-31T00:42:22;101343.97;;;18.91;100.00
56040;BME280;43937;41.366;2.072;2022-10-31T00:44:47;101313.31;;;18.72;100.00
56040;BME280;43937;41.366;2.072;2022-10-31T00:48:03;101338.25;;;18.86;100.00
56040;BME280;43937;41.366;2.072;2022-10-31T00:50:29;101327.19;;;18.79;100.00
56040;BME280;43937;41.366;2.072;2022-10-31T00:52:55;101330.16;;;18.91;100.00
56040;BME280;43937;41.366;2.072;2022-10-31T00:56:38;101337.84;;;18.95;100.00
56040;BME280;43937;41.366;2.072;2022-10-31T00:59:04;101318.72;;;18.87;100.00
56040;BME280;43937;41.366;2.072;2022-10-31T01:01:29;101338.50;;;19.04;100.00
56040;BME280;43937;41.366;2.072;2022-10-31T01:03:54;101334.25;;;19.08;100.00
56040;BME280;43937;41.366;2.072;2022-10-31T01:06:20;101330.84;;;19.06;100.00
56040;BME280;43937;41.366;2.072;2022-10-31T01:08:46;101332.75;;;19.06;100.00
56040;BME280;43937;41.366;2.072;2022-10-31T01:11:15;101293.25;;;18.85;100.00
56040;BME280;43937;41.366;2.072;2022-10-31T01:13:42;101325.31;;;19.06;100.00
56040;BME280;43937;41.366;2.072;2022-10-31T01:16:10;101327.88;;;19.01;100.00
56040;BME280;43937;41.366;2.072;2022-10-31T01:18:36;101284.09;;;18.78;100.00
56040;BME280;43937;41.366;2.072;2022-10-31T01:21:09;101325.75;;;18.96;100.00
56040;BME280;43937;41.366;2.072;2022-10-31T01:23:36;101310.03;;;18.97;100.00
56040;BME280;43937;41.366;2.072;2022-10-31T01:28:29;101304.94;;;18.94;100.00
56040;BME280;43937;41.366;2.072;2022-10-31T01:30:54;101314.94;;;18.95;100.00
56040;BME280;43937;41.366;2.072;2022-10-31T01:33:20;101314.09;;;18.94;100.00
56040;BME280;43937;41.366;2.072;2022-10-31T01:37:33;101303.69;;;19.03;100.00
56040;BME280;43937;41.366;2.072;2022-10-31T01:39:58;101288.78;;;18.91;100.00
56040;BME280;43937;41.366;2.072;2022-10-31T01:42:24;101299.22;;;18.95;100.00
56040;BME280;43937;41.366;2.072;2022-10-31T01:44:53;101309.19;;;18.96;100.00
56040;BME280;43937;41.366;2.072;2022-10-31T01:47:24;101313.88;;;19.03;100.00
56040;BME280;43937;41.366;2.072;2022-10-31T01:49:55;101307.09;;;19.05;100.00
56040;BME280;43937;41.366;2.072;2022-10-31T01:54:37;101307.28;;;18.97;100.00
56040;BME280;43937;41.366;2.072;2022-10-31T01:57:06;101306.22;;;18.98;100.00
56040;BME280;43937;41.366;2.072;2022-10-31T01:59:35;101310.69;;;18.99;100.00
56040;BME280;43937;41.366;2.072;2022-10-31T02:02:03;101289.00;;;18.83;100.00
56040;BME280;43937;41.366;2.072;2022-10-31T02:06:36;101298.56;;;18.93;100.00
56040;BME280;43937;41.366;2.072;2022-10-31T02:09:05;101301.75;;;18.90;100.00
56040;BME280;43937;41.366;2.072;2022-10-31T02:11:31;101296.84;;;18.79;100.00
56040;BME280;43937;41.366;2.072;2022-10-31T02:15:37;101280.72;;;18.76;100.00
56040;BME280;43937;41.366;2.072;2022-10-31T02:30:23;101274.50;;;18.67;100.00
56040;BME280;43937;41.366;2.072;2022-10-31T02:34:30;101284.72;;;18.73;100.00
56040;BME280;43937;41.366;2.072;2022-10-31T02:37:14;101247.69;;;18.48;100.00
56040;BME280;43937;41.366;2.072;2022-10-31T02:45:50;101278.09;;;18.68;100.00
56040;BME280;43937;41.366;2.072;2022-10-31T02:48:23;101290.38;;;18.59;100.00
56040;BME280;43937;41.366;2.072;2022-10-31T02:50:57;101274.66;;;18.52;100.00
56040;BME280;43937;41.366;2.072;2022-10-31T02:53:24;101206.44;;;18.13;100.00
56040;BME280;43937;41.366;2.072;2022-10-31T02:59:58;101268.06;;;18.47;100.00
56040;BME280;43937;41.366;2.072;2022-10-31T03:10:47;101271.13;;;18.24;100.00
56040;BME280;43937;41.366;2.072;2022-10-31T03:21:57;101267.75;;;18.22;100.00
56040;BME280;43937;41.366;2.072;2022-10-31T03:25:34;101272.84;;;18.25;100.00
56040;BME280;43937;41.366;2.072;2022-10-31T03:28:01;101272.78;;;18.18;100.00
56040;BME280;43937;41.366;2.072;2022-10-31T03:31:58;101260.47;;;18.14;100.00
56040;BME280;43937;41.366;2.072;2022-10-31T03:34:26;101240.47;;;17.99;100.00
56040;BME280;43937;41.366;2.072;2022-10-31T03:36:55;101269.63;;;18.21;100.00
56040;BME280;43937;41.366;2.072;2022-10-31T03:39:22;101281.28;;;18.23;100.00
56040;BME280;43937;41.366;2.072;2022-10-31T03:42:05;101273.69;;;18.25;100.00
56040;BME280;43937;41.366;2.072;2022-10-31T03:44:32;101277.03;;;18.21;100.00
56040;BME280;43937;41.366;2.072;2022-10-31T03:46:59;101267.06;;;18.13;100.00
56040;BME280;43937;41.366;2.072;2022-10-31T03:49:25;101284.69;;;18.19;100.00
56040;BME280;43937;41.366;2.072;2022-10-31T03:53:24;101238.97;;;17.96;100.00
56040;BME280;43937;41.366;2.072;2022-10-31T03:58:42;101273.38;;;18.07;100.00
56040;BME280;43937;41.366;2.072;2022-10-31T04:01:11;101271.50;;;18.14;100.00
56040;BME280;43937;41.366;2.072;2022-10-31T04:03:40;101259.81;;;18.12;100.00
56040;BME280;43937;41.366;2.072;2022-10-31T04:06:08;101266.88;;;18.21;100.00
56040;BME280;43937;41.366;2.072;2022-10-31T04:08:45;101278.75;;;18.22;100.00
56040;BME280;43937;41.366;2.072;2022-10-31T04:11:53;101269.16;;;18.11;100.00
56040;BME280;43937;41.366;2.072;2022-10-31T04:14:20;101251.66;;;17.91;100.00
56040;BME280;43937;41.366;2.072;2022-10-31T04:16:47;101269.66;;;17.87;100.00
56040;BME280;43937;41.366;2.072;2022-10-31T04:19:13;101267.03;;;17.78;100.00
56040;BME280;43937;41.366;2.072;2022-10-31T04:21:39;101231.28;;;17.57;100.00
56040;BME280;43937;41.366;2.072;2022-10-31T04:24:05;101250.53;;;17.57;100.00
56040;BME280;43937;41.366;2.072;2022-10-31T04:26:30;101269.84;;;17.63;100.00
56040;BME280;43937;41.366;2.072;2022-10-31T04:28:56;101257.38;;;17.61;100.00
56040;BME280;43937;41.366;2.072;2022-10-31T04:31:21;101266.47;;;17.61;100.00
56040;BME280;43937;41.366;2.072;2022-10-31T04:33:46;101263.91;;;17.60;100.00
56040;BME280;43937;41.366;2.072;2022-10-31T04:36:12;101266.94;;;17.65;100.00
56040;BME280;43937;41.366;2.072;2022-10-31T04:38:37;101253.03;;;17.52;100.00
56040;BME280;43937;41.366;2.072;2022-10-31T04:41:03;101259.41;;;17.52;100.00
56040;BME280;43937;41.366;2.072;2022-10-31T04:43:28;101259.59;;;17.51;100.00
56040;BME280;43937;41.366;2.072;2022-10-31T04:45:54;101261.56;;;17.57;100.00
56040;BME280;43937;41.366;2.072;2022-10-31T04:48:19;101258.63;;;17.58;100.00
56040;BME280;43937;41.366;2.072;2022-10-31T04:50:44;101274.75;;;17.61;100.00
56040;BME280;43937;41.366;2.072;2022-10-31T04:54:57;101266.41;;;17.55;100.00
56040;BME280;43937;41.366;2.072;2022-10-31T04:57:22;101261.06;;;17.47;100.00
56040;BME280;43937;41.366;2.072;2022-10-31T04:59:47;101267.59;;;17.46;100.00
56040;BME280;43937;41.366;2.072;2022-10-31T05:04:18;101264.22;;;17.44;100.00
56040;BME280;43937;41.366;2.072;2022-10-31T05:06:43;101262.72;;;17.41;100.00
56040;BME280;43937;41.366;2.072;2022-10-31T05:09:09;101256.53;;;17.39;100.00
56040;BME280;43937;41.366;2.072;2022-10-31T05:11:34;101265.38;;;17.56;100.00
56040;BME280;43937;41.366;2.072;2022-10-31T05:13:59;101262.81;;;17.54;100.00
56040;BME280;43937;41.366;2.072;2022-10-31T05:16:25;101267.06;;;17.57;100.00
56040;BME280;43937;41.366;2.072;2022-10-31T05:20:32;101270.25;;;17.60;100.00
56040;BME280;43937;41.366;2.072;2022-10-31T05:22:58;101264.56;;;17.62;100.00
56040;BME280;43937;41.366;2.072;2022-10-31T05:25:26;101265.63;;;17.61;100.00
56040;BME280;43937;41.366;2.072;2022-10-31T05:31:30;101260.13;;;17.61;100.00
56040;BME280;43937;41.366;2.072;2022-10-31T05:35:40;101269.56;;;17.52;100.00
56040;BME280;43937;41.366;2.072;2022-10-31T05:38:05;101250.25;;;17.45;100.00
56040;BME280;43937;41.366;2.072;2022-10-31T05:40:31;101267.28;;;17.55;100.00
56040;BME280;43937;41.366;2.072;2022-10-31T05:42:56;101274.88;;;17.53;100.00
56040;BME280;43937;41.366;2.072;2022-10-31T05:45:24;101265.78;;;17.53;100.00
56040;BME280;43937;41.366;2.072;2022-10-31T05:47:53;101267.50;;;17.32;100.00
56040;BME280;43937;41.366;2.072;2022-10-31T05:53:46;101244.50;;;17.18;100.00
56040;BME280;43937;41.366;2.072;2022-10-31T05:56:12;101269.84;;;17.35;100.00
56040;BME280;43937;41.366;2.072;2022-10-31T05:58:37;101275.34;;;17.35;100.00
56040;BME280;43937;41.366;2.072;2022-10-31T06:01:03;101265.66;;;17.39;100.00
56040;BME280;43937;41.366;2.072;2022-10-31T06:04:21;101276.78;;;17.53;100.00
56040;BME280;43937;41.366;2.072;2022-10-31T06:06:46;101272.56;;;17.57;100.00
56040;BME280;43937;41.366;2.072;2022-10-31T06:09:12;101262.19;;;17.52;100.00
56040;BME280;43937;41.366;2.072;2022-10-31T06:11:37;101280.88;;;17.63;100.00
56040;BME280;43937;41.366;2.072;2022-10-31T06:14:03;101283.56;;;17.57;100.00
56040;BME280;43937;41.366;2.072;2022-10-31T06:18:39;101236.16;;;17.33;100.00
56040;BME280;43937;41.366;2.072;2022-10-31T06:21:30;101261.97;;;17.54;100.00
56040;BME280;43937;41.366;2.072;2022-10-31T06:23:55;101263.06;;;17.59;100.00
56040;BME280;43937;41.366;2.072;2022-10-31T06:26:21;101285.66;;;17.76;100.00
56040;BME280;43937;41.366;2.072;2022-10-31T06:28:46;101284.47;;;17.85;100.00
56040;BME280;43937;41.366;2.072;2022-10-31T06:31:11;101284.91;;;17.89;100.00
56040;BME280;43937;41.366;2.072;2022-10-31T06:33:37;101283.19;;;17.88;100.00
56040;BME280;43937;41.366;2.072;2022-10-31T06:36:36;101286.09;;;18.08;100.00
56040;BME280;43937;41.366;2.072;2022-10-31T06:39:02;101293.78;;;18.19;100.00
56040;BME280;43937;41.366;2.072;2022-10-31T06:41:27;101290.66;;;18.29;100.00
56040;BME280;43937;41.366;2.072;2022-10-31T06:43:53;101291.25;;;18.24;100.00
56040;BME280;43937;41.366;2.072;2022-10-31T06:46:18;101298.72;;;18.30;100.00
56040;BME280;43937;41.366;2.072;2022-10-31T06:48:43;101301.03;;;18.27;100.00
56040;BME280;43937;41.366;2.072;2022-10-31T06:51:09;101285.09;;;18.16;100.00
56040;BME280;43937;41.366;2.072;2022-10-31T06:53:35;101299.16;;;18.34;100.00
56040;BME280;43937;41.366;2.072;2022-10-31T06:56:00;101298.34;;;18.34;100.00
56040;BME280;43937;41.366;2.072;2022-10-31T06:59:45;101289.66;;;18.37;100.00
56040;BME280;43937;41.366;2.072;2022-10-31T07:02:11;101300.09;;;18.54;100.00
56040;BME280;43937;41.366;2.072;2022-10-31T07:04:37;101303.13;;;18.66;100.00
56040;BME280;43937;41.366;2.072;2022-10-31T07:07:02;101304.47;;;18.77;100.00
56040;BME280;43937;41.366;2.072;2022-10-31T07:09:27;101310.66;;;18.86;100.00
56040;BME280;43937;41.366;2.072;2022-10-31T07:11:53;101311.09;;;19.03;100.00
56040;BME280;43937;41.366;2.072;2022-10-31T07:14:19;101330.25;;;19.24;100.00
56040;BME280;43937;41.366;2.072;2022-10-31T07:17:03;101322.00;;;19.44;100.00
56040;BME280;43937;41.366;2.072;2022-10-31T07:20:38;101334.97;;;19.57;100.00
56040;BME280;43937;41.366;2.072;2022-10-31T07:23:03;101309.69;;;19.47;100.00
56040;BME280;43937;41.366;2.072;2022-10-31T07:25:29;101343.50;;;19.75;100.00
56040;BME280;43937;41.366;2.072;2022-10-31T07:27:54;101323.13;;;19.76;99.79
56040;BME280;43937;41.366;2.072;2022-10-31T07:30:20;101342.66;;;19.88;98.25
56040;BME280;43937;41.366;2.072;2022-10-31T07:32:47;101338.19;;;20.00;97.53
56040;BME280;43937;41.366;2.072;2022-10-31T07:35:16;101335.59;;;20.12;96.28
56040;BME280;43937;41.366;2.072;2022-10-31T07:37:42;101289.31;;;19.61;95.82
56040;BME280;43937;41.366;2.072;2022-10-31T07:40:08;101341.56;;;20.22;94.83
56040;BME280;43937;41.366;2.072;2022-10-31T07:42:36;101324.91;;;20.35;93.16
56040;BME280;43937;41.366;2.072;2022-10-31T07:45:04;101333.84;;;20.38;92.36
56040;BME280;43937;41.366;2.072;2022-10-31T07:47:30;101322.63;;;20.26;92.50
56040;BME280;43937;41.366;2.072;2022-10-31T07:50:02;101340.63;;;20.42;90.71
56040;BME280;43937;41.366;2.072;2022-10-31T07:52:28;101340.56;;;20.75;90.23
56040;BME280;43937;41.366;2.072;2022-10-31T07:54:53;101336.84;;;20.94;87.99
56040;BME280;43937;41.366;2.072;2022-10-31T07:57:18;101331.53;;;21.63;84.01
56040;BME280;43937;41.366;2.072;2022-10-31T07:59:44;101334.16;;;23.42;74.80
56040;BME280;43937;41.366;2.072;2022-10-31T08:02:09;101322.28;;;24.59;67.05
56040;BME280;43937;41.366;2.072;2022-10-31T08:07:15;101323.06;;;25.40;62.94
56040;BME280;43937;41.366;2.072;2022-10-31T08:09:40;101319.09;;;25.36;62.47
56040;BME280;43937;41.366;2.072;2022-10-31T08:13:20;101330.59;;;24.71;64.86
56040;BME280;43937;41.366;2.072;2022-10-31T08:15:45;101328.25;;;24.04;67.38
56040;BME280;43937;41.366;2.072;2022-10-31T08:18:15;101338.19;;;23.58;71.17
56040;BME280;43937;41.366;2.072;2022-10-31T08:20:42;101339.25;;;23.15;72.29
56040;BME280;43937;41.366;2.072;2022-10-31T08:23:09;101345.38;;;23.35;70.89
56040;BME280;43937;41.366;2.072;2022-10-31T08:25:35;101344.31;;;22.88;73.51
56040;BME280;43937;41.366;2.072;2022-10-31T08:28:01;101324.06;;;22.50;73.91
56040;BME280;43937;41.366;2.072;2022-10-31T08:32:36;101338.41;;;22.47;73.62
56040;BME280;43937;41.366;2.072;2022-10-31T08:35:02;101335.75;;;22.89;71.96
56040;BME280;43937;41.366;2.072;2022-10-31T08:37:27;101338.00;;;22.62;73.19
56040;BME280;43937;41.366;2.072;2022-10-31T08:39:53;101341.41;;;22.46;74.55
56040;BME280;43937;41.366;2.072;2022-10-31T08:42:18;101325.06;;;22.37;75.18
56040;BME280;43937;41.366;2.072;2022-10-31T08:46:46;101330.47;;;22.07;76.86
56040;BME280;43937;41.366;2.072;2022-10-31T08:49:12;101328.56;;;22.08;76.95
56040;BME280;43937;41.366;2.072;2022-10-31T08:51:37;101323.00;;;22.08;77.18
56040;BME280;43937;41.366;2.072;2022-10-31T08:54:03;101292.06;;;21.67;78.01
56040;BME280;43937;41.366;2.072;2022-10-31T08:56:28;101335.47;;;21.99;77.61
56040;BME280;43937;41.366;2.072;2022-10-31T08:58:53;101326.91;;;22.25;76.36
56040;BME280;43937;41.366;2.072;2022-10-31T09:02:16;101330.13;;;21.79;77.46
